createdAt,value
2022-10-28T00:04:32.986Z,3.95
2022-10-28T00:09:36.122Z,3.86
2022-10-28T00:14:38.800Z,3.77
2022-10-28T00:19:41.350Z,3.89
2022-10-28T00:24:43.937Z,3.87
2022-10-28T00:29:46.512Z,3.71
2022-10-28T00:34:49.063Z,3.96
2022-10-28T00:39:51.621Z,4.07
2022-10-28T00:44:59.694Z,4.08
2022-10-28T00:50:20.916Z,4.20
2022-10-28T00:55:24.721Z,4.17
2022-10-28T01:00:27.682Z,4.15
2022-10-28T01:05:33.518Z,4.25
2022-10-28T01:10:59.233Z,4.31
2022-10-28T01:16:16.648Z,4.41
2022-10-28T01:21:51.605Z,4.50
2022-10-28T01:27:03.130Z,4.41
2022-10-28T01:32:17.456Z,4.40
2022-10-28T01:38:01.371Z,4.46
2022-10-28T01:43:16.329Z,4.47
2022-10-28T01:48:30.834Z,4.34
2022-10-28T01:53:38.312Z,4.30
2022-10-28T01:58:43.009Z,4.32
2022-10-28T02:03:47.738Z,4.24
2022-10-28T02:09:00.173Z,4.17
2022-10-28T02:14:24.420Z,4.46
2022-10-28T02:19:48.213Z,4.46
2022-10-28T02:25:08.105Z,4.50
2022-10-28T02:30:24.323Z,4.54
2022-10-28T02:35:57.714Z,4.62
2022-10-28T02:41:06.346Z,4.60
2022-10-28T02:46:11.206Z,4.58
2022-10-28T02:51:34.500Z,4.72
2022-10-28T02:56:49.296Z,4.65
2022-10-28T03:01:52.395Z,4.63
2022-10-28T03:06:55.097Z,4.66
2022-10-28T03:11:57.635Z,4.69
2022-10-28T03:17:00.306Z,4.70
2022-10-28T03:22:03.115Z,4.71
2022-10-28T03:27:05.765Z,4.55
2022-10-28T03:32:08.379Z,4.73
2022-10-28T03:37:11.062Z,4.73
2022-10-28T03:42:13.647Z,4.69
2022-10-28T03:47:16.342Z,4.70
2022-10-28T03:52:19.024Z,4.63
2022-10-28T03:57:21.563Z,4.66
2022-10-28T04:02:24.404Z,4.51
2022-10-28T04:07:27.037Z,4.72
2022-10-28T04:12:29.579Z,4.62
2022-10-28T04:17:34.636Z,4.65
2022-10-28T04:22:37.282Z,4.71
2022-10-28T04:27:39.896Z,4.67
2022-10-28T04:32:43.650Z,4.79
2022-10-28T04:37:46.285Z,4.85
2022-10-28T04:42:48.893Z,4.77
2022-10-28T04:47:57.324Z,4.73
2022-10-28T04:53:00.336Z,4.78
2022-10-28T04:58:02.993Z,4.87
2022-10-28T05:03:05.674Z,4.99
2022-10-28T05:08:08.365Z,4.98
2022-10-28T05:13:10.933Z,5.11
2022-10-28T05:18:13.546Z,5.15
2022-10-28T05:23:16.153Z,5.16
2022-10-28T05:28:19.178Z,5.18
2022-10-28T05:33:21.935Z,5.25
2022-10-28T05:43:53.340Z,5.14
2022-10-28T05:48:55.969Z,5.33
2022-10-28T05:53:58.610Z,5.43
2022-10-28T05:59:01.245Z,5.37
2022-10-28T06:04:04.937Z,5.44
2022-10-28T06:09:07.635Z,5.70
2022-10-28T06:14:08.760Z,5.71
2022-10-28T06:19:11.379Z,5.41
2022-10-28T06:24:14.058Z,5.43
2022-10-28T06:29:17.080Z,5.69
2022-10-28T06:34:20.201Z,6.05
2022-10-28T06:39:22.957Z,6.17
2022-10-28T06:44:25.566Z,6.36
2022-10-28T06:49:29.634Z,6.63
2022-10-28T06:54:32.183Z,6.68
2022-10-28T06:59:34.730Z,7.22
2022-10-28T07:04:37.698Z,7.25
2022-10-28T07:09:40.386Z,7.36
2022-10-28T07:14:42.917Z,7.37
2022-10-28T07:19:45.548Z,7.20
2022-10-28T07:24:49.031Z,7.51
2022-10-28T07:29:51.603Z,7.63
2022-10-28T07:34:54.279Z,7.53
2022-10-28T07:39:59.632Z,7.62
2022-10-28T07:45:02.292Z,7.90
2022-10-28T07:50:06.954Z,7.86
2022-10-28T07:55:13.072Z,8.08
2022-10-28T08:00:17.129Z,7.73
2022-10-28T08:05:20.408Z,8.21
2022-10-28T08:10:23.447Z,8.57
2022-10-28T08:15:32.130Z,8.49
2022-10-28T08:20:34.767Z,8.45
2022-10-28T08:25:37.877Z,8.68
2022-10-28T08:30:56.676Z,8.99
2022-10-28T08:36:00.626Z,9.15
2022-10-28T08:41:25.212Z,9.29
2022-10-28T08:47:01.555Z,9.29
2022-10-28T08:52:14.503Z,9.11
2022-10-28T08:57:21.577Z,9.34
2022-10-28T09:02:32.018Z,9.77
2022-10-28T09:07:37.438Z,9.68
2022-10-28T09:13:11.778Z,9.17
2022-10-28T09:18:23.437Z,9.03
2022-10-28T09:23:36.207Z,9.12
2022-10-28T09:34:44.845Z,10.09
2022-10-28T09:39:51.681Z,10.13
2022-10-28T09:45:05.178Z,9.76
2022-10-28T09:50:17.625Z,9.66
2022-10-28T09:55:22.479Z,9.45
2022-10-28T10:00:25.323Z,9.48
2022-10-28T10:05:30.458Z,9.91
2022-10-28T10:10:44.846Z,10.06
2022-10-28T10:15:54.175Z,10.08
2022-10-28T10:20:58.754Z,9.98
2022-10-28T10:26:12.508Z,9.66
2022-10-28T10:31:23.403Z,9.77
2022-10-28T10:36:29.151Z,9.62
2022-10-28T10:41:39.432Z,9.55
2022-10-28T10:46:42.122Z,9.63
2022-10-28T10:51:59.450Z,9.75
2022-10-28T10:57:20.991Z,9.68
2022-10-28T11:02:38.100Z,9.62
2022-10-28T11:07:48.326Z,9.93
2022-10-28T11:13:12.449Z,10.12
2022-10-28T11:18:21.050Z,10.23
2022-10-28T11:23:29.655Z,10.11
2022-10-28T11:28:37.290Z,10.22
2022-10-28T11:33:50.672Z,10.00
2022-10-28T11:39:25.561Z,9.59
2022-10-28T11:44:43.408Z,9.67
2022-10-28T11:49:52.571Z,9.92
2022-10-28T11:55:04.084Z,10.02
2022-10-28T12:00:33.695Z,10.24
2022-10-28T12:05:49.804Z,10.23
2022-10-28T12:11:15.552Z,10.12
2022-10-28T12:16:50.631Z,10.14
2022-10-28T12:22:00.106Z,10.06
2022-10-28T12:27:15.433Z,9.95
2022-10-28T12:32:28.188Z,9.76
2022-10-28T12:37:42.175Z,9.84
2022-10-28T12:42:54.469Z,9.76
2022-10-28T12:48:22.382Z,9.83
2022-10-28T12:53:49.043Z,9.91
2022-10-28T12:58:57.811Z,9.82
2022-10-28T13:04:01.496Z,9.76
2022-10-28T13:09:25.279Z,9.71
2022-10-28T13:14:39.525Z,9.71
2022-10-28T13:19:56.874Z,9.53
2022-10-28T13:24:59.454Z,9.48
2022-10-28T13:30:03.656Z,9.26
2022-10-28T13:35:11.873Z,9.41
2022-10-28T13:40:41.355Z,9.45
2022-10-28T13:45:55.173Z,9.39
2022-10-28T13:51:09.886Z,9.30
2022-10-28T13:56:21.190Z,9.41
2022-10-28T14:01:42.060Z,9.33
2022-10-28T14:06:44.917Z,9.25
2022-10-28T14:12:03.255Z,9.25
2022-10-28T14:17:14.597Z,9.11
2022-10-28T14:22:29.079Z,9.25
2022-10-28T14:27:41.834Z,9.26
2022-10-28T14:32:50.286Z,9.21
2022-10-28T14:38:11.184Z,9.05
2022-10-28T14:43:25.133Z,9.00
2022-10-28T14:48:56.168Z,9.09
2022-10-28T14:54:02.383Z,8.94
2022-10-28T14:59:26.062Z,9.03
2022-10-28T15:04:30.151Z,8.79
2022-10-28T15:09:35.111Z,8.86
2022-10-28T15:14:52.362Z,8.97
2022-10-28T15:19:57.543Z,8.89
2022-10-28T15:25:02.745Z,8.83
2022-10-28T15:30:20.916Z,8.88
2022-10-28T15:35:49.417Z,8.75
2022-10-28T15:40:52.572Z,8.73
2022-10-28T15:46:08.756Z,8.62
2022-10-28T15:51:17.363Z,8.63
2022-10-28T15:56:25.970Z,8.56
2022-10-28T16:01:38.359Z,8.60
2022-10-28T16:06:41.136Z,8.42
2022-10-28T16:11:53.435Z,8.67
2022-10-28T16:16:57.930Z,8.67
2022-10-28T16:22:00.521Z,8.74
2022-10-28T16:27:19.038Z,8.62
2022-10-28T16:32:49.096Z,8.77
2022-10-28T16:37:55.518Z,8.87
2022-10-28T16:42:58.783Z,8.83
2022-10-28T16:48:01.416Z,8.74
2022-10-28T16:53:04.090Z,8.78
2022-10-28T16:58:07.027Z,8.63
2022-10-28T17:03:17.060Z,8.72
2022-10-28T17:08:31.068Z,8.73
2022-10-28T17:13:39.566Z,8.75
2022-10-28T17:18:43.667Z,8.91
2022-10-28T17:23:46.357Z,9.01
2022-10-28T17:28:52.631Z,8.89
2022-10-28T17:33:55.667Z,8.95
2022-10-28T17:38:58.452Z,9.01
2022-10-28T17:44:01.276Z,8.86
2022-10-28T17:49:08.550Z,8.99
2022-10-28T17:54:11.566Z,8.83
2022-10-28T17:59:14.751Z,8.91
2022-10-28T18:04:17.453Z,8.95
2022-10-28T18:09:20.444Z,8.92
2022-10-28T18:14:23.223Z,8.96
2022-10-28T18:19:25.967Z,8.86
2022-10-28T18:24:28.548Z,8.92
2022-10-28T18:29:31.114Z,8.91
2022-10-28T18:34:33.856Z,8.83
2022-10-28T18:39:36.632Z,8.87
2022-10-28T18:44:39.215Z,8.86
2022-10-28T18:49:41.887Z,8.69
2022-10-28T18:54:44.393Z,8.92
2022-10-28T19:00:16.894Z,8.90
2022-10-28T19:05:09.593Z,8.76
2022-10-28T19:10:12.569Z,8.79
2022-10-28T19:15:15.909Z,8.69
2022-10-28T19:20:18.839Z,8.69
2022-10-28T19:25:21.463Z,8.89
2022-10-28T19:30:24.057Z,8.74
2022-10-28T19:35:26.687Z,8.82
2022-10-28T19:40:29.402Z,8.83
2022-10-28T19:45:32.156Z,8.79
2022-10-28T19:50:34.870Z,8.88
2022-10-28T19:55:37.506Z,8.93
2022-10-28T20:00:40.064Z,8.93
2022-10-28T20:05:42.685Z,9.02
2022-10-28T20:10:46.573Z,9.00
2022-10-28T20:15:49.153Z,9.09
2022-10-28T20:20:51.761Z,9.14
2022-10-28T20:25:54.359Z,8.96
2022-10-28T20:30:58.958Z,9.20
2022-10-28T20:36:01.942Z,9.19
2022-10-28T20:41:04.558Z,9.06
2022-10-28T20:46:09.350Z,9.18
2022-10-28T20:51:13.374Z,9.09
2022-10-28T20:56:21.094Z,9.17
2022-10-28T21:01:29.102Z,9.18
2022-10-28T21:06:32.734Z,9.27
2022-10-28T21:11:35.361Z,9.13
2022-10-28T21:16:37.955Z,9.17
2022-10-28T21:21:40.756Z,9.15
2022-10-28T21:26:46.074Z,8.93
2022-10-28T21:31:51.063Z,8.67
2022-10-28T21:36:53.611Z,8.80
2022-10-28T21:41:56.182Z,8.95
2022-10-28T21:46:59.026Z,9.09
2022-10-28T21:52:01.752Z,9.28
2022-10-28T21:57:05.290Z,9.15
2022-10-28T22:02:08.114Z,9.09
2022-10-28T22:07:10.820Z,9.17
2022-10-28T22:12:13.630Z,9.10
2022-10-28T22:17:16.197Z,9.00
2022-10-28T22:22:19.029Z,9.05
2022-10-28T22:27:21.807Z,9.18
2022-10-28T22:32:24.354Z,9.29
2022-10-28T22:37:26.949Z,9.39
2022-10-28T22:42:29.492Z,9.42
2022-10-28T22:47:32.056Z,9.45
2022-10-28T22:52:34.923Z,9.36
2022-10-28T22:57:37.513Z,9.40
2022-10-28T23:02:40.265Z,9.51
2022-10-28T23:07:42.956Z,9.01
2022-10-28T23:12:45.655Z,9.16
2022-10-28T23:17:49.419Z,9.12
2022-10-28T23:22:56.327Z,9.21
2022-10-28T23:27:59.124Z,9.25
2022-10-28T23:33:01.690Z,9.29
2022-10-28T23:38:05.344Z,9.44
2022-10-28T23:43:07.953Z,9.31
2022-10-28T23:48:10.513Z,9.42
2022-10-28T23:53:13.284Z,9.41
2022-10-28T23:58:17.400Z,9.36
